sensor_id;sensor_type;location;lat;lon;timestamp;P1;durP1;ratioP1;P2;durP2;ratioP2
35679;SDS011;21803;53.586;10.040;2022-08-25T00:01:14;1.35;;;1.05;;
35679;SDS011;21803;53.586;10.040;2022-08-25T00:03:45;1.30;;;1.10;;
35679;SDS011;21803;53.586;10.040;2022-08-25T00:06:11;1.65;;;1.13;;
35679;SDS011;21803;53.586;10.040;2022-08-25T00:08:37;1.88;;;1.10;;
35679;SDS011;21803;53.586;10.040;2022-08-25T00:11:04;1.42;;;1.10;;
35679;SDS011;21803;53.586;10.040;2022-08-25T00:13:36;1.33;;;1.08;;
35679;SDS011;21803;53.586;10.040;2022-08-25T00:16:07;1.55;;;1.13;;
35679;SDS011;21803;53.586;10.040;2022-08-25T00:18:34;1.38;;;0.95;;
35679;SDS011;21803;53.586;10.040;2022-08-25T00:21:01;0.90;;;0.90;;
35679;SDS011;21803;53.586;10.040;2022-08-25T00:23:27;1.15;;;0.98;;
35679;SDS011;21803;53.586;10.040;2022-08-25T00:25:52;1.15;;;1.05;;
35679;SDS011;21803;53.586;10.040;2022-08-25T00:28:19;0.88;;;0.88;;
35679;SDS011;21803;53.586;10.040;2022-08-25T00:30:45;1.13;;;1.02;;
35679;SDS011;21803;53.586;10.040;2022-08-25T00:33:10;1.00;;;0.90;;
35679;SDS011;21803;53.586;10.040;2022-08-25T00:35:36;1.20;;;1.10;;
35679;SDS011;21803;53.586;10.040;2022-08-25T00:38:02;1.10;;;1.00;;
35679;SDS011;21803;53.586;10.040;2022-08-25T00:40:27;1.33;;;1.00;;
35679;SDS011;21803;53.586;10.040;2022-08-25T00:42:53;2.22;;;1.05;;
35679;SDS011;21803;53.586;10.040;2022-08-25T00:45:20;1.02;;;0.93;;
35679;SDS011;21803;53.586;10.040;2022-08-25T00:47:47;0.90;;;0.88;;
35679;SDS011;21803;53.586;10.040;2022-08-25T00:50:12;2.65;;;0.90;;
35679;SDS011;21803;53.586;10.040;2022-08-25T00:52:40;1.10;;;0.88;;
35679;SDS011;21803;53.586;10.040;2022-08-25T00:57:42;1.63;;;0.90;;
35679;SDS011;21803;53.586;10.040;2022-08-25T01:00:36;1.30;;;1.00;;
35679;SDS011;21803;53.586;10.040;2022-08-25T01:03:02;1.10;;;1.00;;
35679;SDS011;21803;53.586;10.040;2022-08-25T01:05:28;1.30;;;1.20;;
35679;SDS011;21803;53.586;10.040;2022-08-25T01:07:55;1.40;;;1.30;;
35679;SDS011;21803;53.586;10.040;2022-08-25T01:10:22;1.30;;;1.20;;
35679;SDS011;21803;53.586;10.040;2022-08-25T01:12:49;1.17;;;1.08;;
35679;SDS011;21803;53.586;10.040;2022-08-25T01:15:18;1.50;;;1.10;;
35679;SDS011;21803;53.586;10.040;2022-08-25T01:20:19;1.20;;;1.00;;
35679;SDS011;21803;53.586;10.040;2022-08-25T01:22:47;0.95;;;0.85;;
35679;SDS011;21803;53.586;10.040;2022-08-25T01:28:09;1.10;;;1.00;;
35679;SDS011;21803;53.586;10.040;2022-08-25T01:30:35;1.10;;;1.00;;
35679;SDS011;21803;53.586;10.040;2022-08-25T01:33:03;1.30;;;1.15;;
35679;SDS011;21803;53.586;10.040;2022-08-25T01:35:31;1.02;;;0.93;;
35679;SDS011;21803;53.586;10.040;2022-08-25T01:37:58;1.52;;;1.20;;
35679;SDS011;21803;53.586;10.040;2022-08-25T01:40:24;1.10;;;1.00;;
35679;SDS011;21803;53.586;10.040;2022-08-25T01:42:53;1.38;;;1.02;;
35679;SDS011;21803;53.586;10.040;2022-08-25T01:45:31;1.30;;;1.10;;
35679;SDS011;21803;53.586;10.040;2022-08-25T01:47:57;1.25;;;1.00;;
35679;SDS011;21803;53.586;10.040;2022-08-25T01:50:23;1.30;;;1.10;;
35679;SDS011;21803;53.586;10.040;2022-08-25T01:55:14;1.17;;;1.08;;
35679;SDS011;21803;53.586;10.040;2022-08-25T01:57:40;1.10;;;1.00;;
35679;SDS011;21803;53.586;10.040;2022-08-25T02:00:07;1.20;;;1.10;;
35679;SDS011;21803;53.586;10.040;2022-08-25T02:02:36;1.38;;;1.00;;
35679;SDS011;21803;53.586;10.040;2022-08-25T02:05:03;1.05;;;0.93;;
35679;SDS011;21803;53.586;10.040;2022-08-25T02:07:29;1.63;;;1.10;;
35679;SDS011;21803;53.586;10.040;2022-08-25T02:09:55;1.05;;;0.90;;
35679;SDS011;21803;53.586;10.040;2022-08-25T02:12:20;1.65;;;1.23;;
35679;SDS011;21803;53.586;10.040;2022-08-25T02:14:46;1.10;;;1.00;;
35679;SDS011;21803;53.586;10.040;2022-08-25T02:17:12;1.17;;;0.95;;
35679;SDS011;21803;53.586;10.040;2022-08-25T02:19:38;1.25;;;0.93;;
35679;SDS011;21803;53.586;10.040;2022-08-25T02:22:04;1.10;;;1.00;;
35679;SDS011;21803;53.586;10.040;2022-08-25T02:24:29;1.10;;;1.00;;
35679;SDS011;21803;53.586;10.040;2022-08-25T02:26:55;1.10;;;1.00;;
35679;SDS011;21803;53.586;10.040;2022-08-25T02:29:22;1.10;;;0.90;;
35679;SDS011;21803;53.586;10.040;2022-08-25T02:31:47;1.50;;;1.10;;
35679;SDS011;21803;53.586;10.040;2022-08-25T02:34:13;0.90;;;0.85;;
35679;SDS011;21803;53.586;10.040;2022-08-25T02:36:39;1.10;;;1.00;;
35679;SDS011;21803;53.586;10.040;2022-08-25T02:39:06;1.35;;;1.10;;
35679;SDS011;21803;53.586;10.040;2022-08-25T02:41:33;1.25;;;1.10;;
35679;SDS011;21803;53.586;10.040;2022-08-25T02:43:59;1.00;;;0.90;;
35679;SDS011;21803;53.586;10.040;2022-08-25T02:46:25;1.05;;;0.90;;
35679;SDS011;21803;53.586;10.040;2022-08-25T02:48:51;0.80;;;0.80;;
35679;SDS011;21803;53.586;10.040;2022-08-25T02:51:18;1.02;;;0.93;;
35679;SDS011;21803;53.586;10.040;2022-08-25T02:53:45;2.03;;;0.98;;
35679;SDS011;21803;53.586;10.040;2022-08-25T02:56:11;1.00;;;0.90;;
35679;SDS011;21803;53.586;10.040;2022-08-25T02:58:38;0.88;;;0.88;;
35679;SDS011;21803;53.586;10.040;2022-08-25T03:01:05;1.02;;;0.93;;
35679;SDS011;21803;53.586;10.040;2022-08-25T03:03:31;1.67;;;0.90;;
35679;SDS011;21803;53.586;10.040;2022-08-25T03:05:57;1.10;;;1.00;;
35679;SDS011;21803;53.586;10.040;2022-08-25T03:08:23;1.42;;;1.00;;
35679;SDS011;21803;53.586;10.040;2022-08-25T03:10:49;1.40;;;1.00;;
35679;SDS011;21803;53.586;10.040;2022-08-25T03:13:15;1.00;;;0.98;;
35679;SDS011;21803;53.586;10.040;2022-08-25T03:15:41;1.10;;;1.00;;
35679;SDS011;21803;53.586;10.040;2022-08-25T03:18:07;1.23;;;1.00;;
35679;SDS011;21803;53.586;10.040;2022-08-25T03:20:35;1.70;;;1.10;;
35679;SDS011;21803;53.586;10.040;2022-08-25T03:23:02;1.38;;;1.10;;
35679;SDS011;21803;53.586;10.040;2022-08-25T03:25:29;1.52;;;0.90;;
35679;SDS011;21803;53.586;10.040;2022-08-25T03:28:13;1.10;;;0.90;;
35679;SDS011;21803;53.586;10.040;2022-08-25T03:30:39;1.33;;;1.23;;
35679;SDS011;21803;53.586;10.040;2022-08-25T03:33:05;1.63;;;1.10;;
35679;SDS011;21803;53.586;10.040;2022-08-25T03:35:30;1.20;;;1.10;;
35679;SDS011;21803;53.586;10.040;2022-08-25T03:37:56;1.15;;;1.05;;
35679;SDS011;21803;53.586;10.040;2022-08-25T03:40:23;1.10;;;1.00;;
35679;SDS011;21803;53.586;10.040;2022-08-25T03:42:50;1.08;;;1.00;;
35679;SDS011;21803;53.586;10.040;2022-08-25T03:45:16;1.30;;;1.00;;
35679;SDS011;21803;53.586;10.040;2022-08-25T03:47:44;1.02;;;0.90;;
35679;SDS011;21803;53.586;10.040;2022-08-25T03:50:15;1.08;;;0.98;;
35679;SDS011;21803;53.586;10.040;2022-08-25T03:52:42;0.82;;;0.80;;
35679;SDS011;21803;53.586;10.040;2022-08-25T03:55:08;1.27;;;1.17;;
35679;SDS011;21803;53.586;10.040;2022-08-25T03:57:36;1.10;;;1.00;;
35679;SDS011;21803;53.586;10.040;2022-08-25T04:00:04;1.10;;;0.93;;
35679;SDS011;21803;53.586;10.040;2022-08-25T04:02:33;1.17;;;1.05;;
35679;SDS011;21803;53.586;10.040;2022-08-25T04:04:59;0.80;;;0.80;;
35679;SDS011;21803;53.586;10.040;2022-08-25T04:07:25;1.00;;;0.90;;
35679;SDS011;21803;53.586;10.040;2022-08-25T04:09:52;1.20;;;1.10;;
35679;SDS011;21803;53.586;10.040;2022-08-25T04:12:18;0.95;;;0.90;;
35679;SDS011;21803;53.586;10.040;2022-08-25T04:14:44;1.65;;;0.93;;
35679;SDS011;21803;53.586;10.040;2022-08-25T04:17:09;0.90;;;0.90;;
35679;SDS011;21803;53.586;10.040;2022-08-25T04:19:35;1.00;;;0.90;;
35679;SDS011;21803;53.586;10.040;2022-08-25T04:22:02;1.23;;;1.05;;
35679;SDS011;21803;53.586;10.040;2022-08-25T04:24:27;1.10;;;1.00;;
35679;SDS011;21803;53.586;10.040;2022-08-25T04:26:53;1.33;;;1.02;;
35679;SDS011;21803;53.586;10.040;2022-08-25T04:29:20;0.90;;;0.90;;
35679;SDS011;21803;53.586;10.040;2022-08-25T04:31:47;1.20;;;1.10;;
35679;SDS011;21803;53.586;10.040;2022-08-25T04:34:17;0.90;;;0.88;;
35679;SDS011;21803;53.586;10.040;2022-08-25T04:36:44;1.00;;;0.90;;
35679;SDS011;21803;53.586;10.040;2022-08-25T04:39:09;1.30;;;1.10;;
35679;SDS011;21803;53.586;10.040;2022-08-25T04:41:35;1.25;;;1.15;;
35679;SDS011;21803;53.586;10.040;2022-08-25T04:44:01;1.45;;;0.90;;
35679;SDS011;21803;53.586;10.040;2022-08-25T04:46:29;0.90;;;0.90;;
35679;SDS011;21803;53.586;10.040;2022-08-25T04:48:56;1.02;;;0.93;;
35679;SDS011;21803;53.586;10.040;2022-08-25T04:51:25;1.30;;;1.00;;
35679;SDS011;21803;53.586;10.040;2022-08-25T04:53:57;1.02;;;0.93;;
35679;SDS011;21803;53.586;10.040;2022-08-25T04:56:25;1.17;;;0.98;;
35679;SDS011;21803;53.586;10.040;2022-08-25T04:58:52;0.85;;;0.80;;
35679;SDS011;21803;53.586;10.040;2022-08-25T05:01:20;1.75;;;0.93;;
35679;SDS011;21803;53.586;10.040;2022-08-25T05:03:51;1.38;;;1.00;;
35679;SDS011;21803;53.586;10.040;2022-08-25T05:06:26;1.20;;;1.10;;
35679;SDS011;21803;53.586;10.040;2022-08-25T05:08:52;0.85;;;0.85;;
35679;SDS011;21803;53.586;10.040;2022-08-25T05:11:20;1.00;;;0.90;;
35679;SDS011;21803;53.586;10.040;2022-08-25T05:13:47;1.02;;;0.90;;
35679;SDS011;21803;53.586;10.040;2022-08-25T05:16:14;1.08;;;0.98;;
35679;SDS011;21803;53.586;10.040;2022-08-25T05:18:41;1.17;;;1.00;;
35679;SDS011;21803;53.586;10.040;2022-08-25T05:21:08;1.10;;;1.00;;
35679;SDS011;21803;53.586;10.040;2022-08-25T05:23:39;1.42;;;0.70;;
35679;SDS011;21803;53.586;10.040;2022-08-25T05:26:07;1.00;;;0.80;;
35679;SDS011;21803;53.586;10.040;2022-08-25T05:28:38;1.08;;;0.90;;
35679;SDS011;21803;53.586;10.040;2022-08-25T05:31:05;1.23;;;1.00;;
35679;SDS011;21803;53.586;10.040;2022-08-25T05:33:34;1.10;;;1.00;;
35679;SDS011;21803;53.586;10.040;2022-08-25T05:36:00;1.00;;;0.90;;
35679;SDS011;21803;53.586;10.040;2022-08-25T05:38:26;0.93;;;0.90;;
35679;SDS011;21803;53.586;10.040;2022-08-25T05:40:55;1.00;;;0.90;;
35679;SDS011;21803;53.586;10.040;2022-08-25T05:43:22;1.20;;;1.10;;
35679;SDS011;21803;53.586;10.040;2022-08-25T05:45:48;0.95;;;0.77;;
35679;SDS011;21803;53.586;10.040;2022-08-25T05:48:14;0.90;;;0.90;;
35679;SDS011;21803;53.586;10.040;2022-08-25T05:50:39;1.33;;;1.00;;
35679;SDS011;21803;53.586;10.040;2022-08-25T05:53:05;1.23;;;1.10;;
35679;SDS011;21803;53.586;10.040;2022-08-25T05:55:31;1.05;;;0.90;;
35679;SDS011;21803;53.586;10.040;2022-08-25T05:57:56;1.10;;;0.90;;
35679;SDS011;21803;53.586;10.040;2022-08-25T06:00:22;1.45;;;0.95;;
35679;SDS011;21803;53.586;10.040;2022-08-25T06:02:48;1.40;;;1.00;;
35679;SDS011;21803;53.586;10.040;2022-08-25T06:05:16;1.02;;;0.93;;
35679;SDS011;21803;53.586;10.040;2022-08-25T06:07:44;1.88;;;1.30;;
35679;SDS011;21803;53.586;10.040;2022-08-25T06:10:11;0.93;;;0.80;;
35679;SDS011;21803;53.586;10.040;2022-08-25T06:12:38;1.10;;;0.93;;
35679;SDS011;21803;53.586;10.040;2022-08-25T06:15:05;1.60;;;1.10;;
35679;SDS011;21803;53.586;10.040;2022-08-25T06:17:31;1.13;;;0.98;;
35679;SDS011;21803;53.586;10.040;2022-08-25T06:19:59;1.40;;;1.10;;
35679;SDS011;21803;53.586;10.040;2022-08-25T06:22:24;0.95;;;0.93;;
35679;SDS011;21803;53.586;10.040;2022-08-25T06:24:50;1.10;;;1.00;;
35679;SDS011;21803;53.586;10.040;2022-08-25T06:27:16;1.20;;;1.10;;
35679;SDS011;21803;53.586;10.040;2022-08-25T06:29:41;1.38;;;1.08;;
35679;SDS011;21803;53.586;10.040;2022-08-25T06:32:07;1.35;;;1.10;;
35679;SDS011;21803;53.586;10.040;2022-08-25T06:34:33;1.95;;;1.20;;
35679;SDS011;21803;53.586;10.040;2022-08-25T06:36:58;1.08;;;0.98;;
35679;SDS011;21803;53.586;10.040;2022-08-25T06:39:24;1.10;;;1.00;;
35679;SDS011;21803;53.586;10.040;2022-08-25T06:41:51;1.40;;;1.02;;
35679;SDS011;21803;53.586;10.040;2022-08-25T06:44:17;1.35;;;1.10;;
35679;SDS011;21803;53.586;10.040;2022-08-25T06:46:42;1.13;;;1.02;;
35679;SDS011;21803;53.586;10.040;2022-08-25T06:49:08;1.30;;;1.15;;
35679;SDS011;21803;53.586;10.040;2022-08-25T06:51:34;1.23;;;1.00;;
35679;SDS011;21803;53.586;10.040;2022-08-25T06:53:59;1.00;;;0.90;;
35679;SDS011;21803;53.586;10.040;2022-08-25T06:56:25;1.10;;;0.98;;
35679;SDS011;21803;53.586;10.040;2022-08-25T06:58:51;1.20;;;0.90;;
35679;SDS011;21803;53.586;10.040;2022-08-25T07:01:20;1.10;;;0.98;;
35679;SDS011;21803;53.586;10.040;2022-08-25T07:03:50;1.10;;;1.00;;
35679;SDS011;21803;53.586;10.040;2022-08-25T07:06:16;1.17;;;0.93;;
35679;SDS011;21803;53.586;10.040;2022-08-25T07:08:42;1.10;;;1.00;;
35679;SDS011;21803;53.586;10.040;2022-08-25T07:11:09;1.27;;;1.00;;
35679;SDS011;21803;53.586;10.040;2022-08-25T07:13:35;1.15;;;1.00;;
35679;SDS011;21803;53.586;10.040;2022-08-25T07:16:02;1.30;;;1.20;;
35679;SDS011;21803;53.586;10.040;2022-08-25T07:18:28;0.95;;;0.93;;
35679;SDS011;21803;53.586;10.040;2022-08-25T07:20:54;1.20;;;1.00;;
35679;SDS011;21803;53.586;10.040;2022-08-25T07:23:20;1.02;;;0.90;;
35679;SDS011;21803;53.586;10.040;2022-08-25T07:25:46;1.10;;;1.00;;
35679;SDS011;21803;53.586;10.040;2022-08-25T07:28:12;1.95;;;1.10;;
35679;SDS011;21803;53.586;10.040;2022-08-25T07:30:39;0.80;;;0.80;;
35679;SDS011;21803;53.586;10.040;2022-08-25T07:33:05;1.25;;;1.10;;
35679;SDS011;21803;53.586;10.040;2022-08-25T07:35:30;1.10;;;1.00;;
35679;SDS011;21803;53.586;10.040;2022-08-25T07:37:56;1.20;;;1.10;;
35679;SDS011;21803;53.586;10.040;2022-08-25T07:40:28;0.90;;;0.90;;
35679;SDS011;21803;53.586;10.040;2022-08-25T07:42:57;1.10;;;1.00;;
35679;SDS011;21803;53.586;10.040;2022-08-25T07:45:26;1.20;;;1.10;;
35679;SDS011;21803;53.586;10.040;2022-08-25T07:47:58;1.25;;;1.00;;
35679;SDS011;21803;53.586;10.040;2022-08-25T07:50:29;1.10;;;1.00;;
35679;SDS011;21803;53.586;10.040;2022-08-25T07:52:55;1.23;;;1.08;;
35679;SDS011;21803;53.586;10.040;2022-08-25T07:55:22;1.10;;;1.00;;
35679;SDS011;21803;53.586;10.040;2022-08-25T07:57:48;1.50;;;1.25;;
35679;SDS011;21803;53.586;10.040;2022-08-25T08:00:14;1.00;;;0.90;;
35679;SDS011;21803;53.586;10.040;2022-08-25T08:02:41;1.23;;;1.13;;
35679;SDS011;21803;53.586;10.040;2022-08-25T08:05:07;1.30;;;1.20;;
35679;SDS011;21803;53.586;10.040;2022-08-25T08:07:34;1.00;;;0.93;;
35679;SDS011;21803;53.586;10.040;2022-08-25T08:10:00;1.58;;;1.17;;
35679;SDS011;21803;53.586;10.040;2022-08-25T08:12:26;1.55;;;1.20;;
35679;SDS011;21803;53.586;10.040;2022-08-25T08:14:52;1.30;;;1.10;;
35679;SDS011;21803;53.586;10.040;2022-08-25T08:17:18;1.58;;;1.05;;
35679;SDS011;21803;53.586;10.040;2022-08-25T08:19:44;1.35;;;1.20;;
35679;SDS011;21803;53.586;10.040;2022-08-25T08:22:09;1.20;;;1.10;;
35679;SDS011;21803;53.586;10.040;2022-08-25T08:24:38;1.20;;;1.00;;
35679;SDS011;21803;53.586;10.040;2022-08-25T08:27:04;0.93;;;0.88;;
35679;SDS011;21803;53.586;10.040;2022-08-25T08:29:31;1.20;;;1.10;;
35679;SDS011;21803;53.586;10.040;2022-08-25T08:31:58;1.23;;;1.02;;
35679;SDS011;21803;53.586;10.040;2022-08-25T08:34:24;1.52;;;1.25;;
35679;SDS011;21803;53.586;10.040;2022-08-25T08:36:49;1.20;;;1.10;;
35679;SDS011;21803;53.586;10.040;2022-08-25T08:39:15;1.42;;;1.10;;
35679;SDS011;21803;53.586;10.040;2022-08-25T08:47:27;1.30;;;1.10;;
35679;SDS011;21803;53.586;10.040;2022-08-25T08:50:32;2.05;;;1.20;;
35679;SDS011;21803;53.586;10.040;2022-08-25T08:55:56;1.40;;;1.30;;
35679;SDS011;21803;53.586;10.040;2022-08-25T09:01:27;1.20;;;1.08;;
35679;SDS011;21803;53.586;10.040;2022-08-25T09:03:57;1.20;;;1.10;;
35679;SDS011;21803;53.586;10.040;2022-08-25T09:06:38;1.40;;;1.13;;
35679;SDS011;21803;53.586;10.040;2022-08-25T09:09:08;1.45;;;1.20;;
35679;SDS011;21803;53.586;10.040;2022-08-25T09:11:59;1.25;;;1.13;;
35679;SDS011;21803;53.586;10.040;2022-08-25T09:14:42;1.40;;;1.00;;
35679;SDS011;21803;53.586;10.040;2022-08-25T09:26:26;1.85;;;1.50;;
35679;SDS011;21803;53.586;10.040;2022-08-25T09:29:48;1.33;;;1.20;;
35679;SDS011;21803;53.586;10.040;2022-08-25T09:31:46;1.30;;;1.20;;
35679;SDS011;21803;53.586;10.040;2022-08-25T09:34:20;1.13;;;1.02;;
35679;SDS011;21803;53.586;10.040;2022-08-25T09:36:48;1.70;;;1.33;;
35679;SDS011;21803;53.586;10.040;2022-08-25T09:39:17;1.75;;;1.30;;
35679;SDS011;21803;53.586;10.040;2022-08-25T09:41:45;1.20;;;1.10;;
35679;SDS011;21803;53.586;10.040;2022-08-25T09:47:13;1.65;;;1.40;;
35679;SDS011;21803;53.586;10.040;2022-08-25T09:49:50;1.10;;;1.02;;
35679;SDS011;21803;53.586;10.040;2022-08-25T09:52:30;1.20;;;1.10;;
35679;SDS011;21803;53.586;10.040;2022-08-25T09:55:00;1.25;;;1.15;;
35679;SDS011;21803;53.586;10.040;2022-08-25T09:57:47;2.10;;;1.30;;
35679;SDS011;21803;53.586;10.040;2022-08-25T10:10:55;1.27;;;1.17;;
35679;SDS011;21803;53.586;10.040;2022-08-25T10:13:32;1.17;;;1.08;;
35679;SDS011;21803;53.586;10.040;2022-08-25T10:18:37;2.03;;;1.20;;
35679;SDS011;21803;53.586;10.040;2022-08-25T10:21:05;1.30;;;1.20;;
35679;SDS011;21803;53.586;10.040;2022-08-25T10:23:31;1.60;;;1.20;;
35679;SDS011;21803;53.586;10.040;2022-08-25T10:26:02;1.35;;;1.25;;
35679;SDS011;21803;53.586;10.040;2022-08-25T10:29:01;1.35;;;1.20;;
35679;SDS011;21803;53.586;10.040;2022-08-25T10:39:35;1.38;;;1.27;;
35679;SDS011;21803;53.586;10.040;2022-08-25T10:42:10;1.73;;;1.30;;
35679;SDS011;21803;53.586;10.040;2022-08-25T10:47:51;1.58;;;1.40;;
35679;SDS011;21803;53.586;10.040;2022-08-25T10:50:46;1.40;;;1.20;;
35679;SDS011;21803;53.586;10.040;2022-08-25T10:56:09;2.05;;;1.05;;
35679;SDS011;21803;53.586;10.040;2022-08-25T11:01:18;1.30;;;1.20;;
35679;SDS011;21803;53.586;10.040;2022-08-25T11:03:58;1.20;;;1.10;;
35679;SDS011;21803;53.586;10.040;2022-08-25T11:09:12;1.40;;;1.10;;
35679;SDS011;21803;53.586;10.040;2022-08-25T11:11:51;1.45;;;1.33;;
35679;SDS011;21803;53.586;10.040;2022-08-25T11:14:30;1.23;;;1.13;;
35679;SDS011;21803;53.586;10.040;2022-08-25T11:17:24;1.60;;;1.40;;
35679;SDS011;21803;53.586;10.040;2022-08-25T11:20:08;1.35;;;1.25;;
35679;SDS011;21803;53.586;10.040;2022-08-25T11:22:39;1.42;;;1.30;;
35679;SDS011;21803;53.586;10.040;2022-08-25T11:25:16;1.63;;;1.25;;
35679;SDS011;21803;53.586;10.040;2022-08-25T11:27:54;1.40;;;1.30;;
35679;SDS011;21803;53.586;10.040;2022-08-25T11:30:27;1.48;;;1.30;;
35679;SDS011;21803;53.586;10.040;2022-08-25T11:32:53;1.58;;;1.40;;
35679;SDS011;21803;53.586;10.040;2022-08-25T11:38:13;1.52;;;1.23;;
35679;SDS011;21803;53.586;10.040;2022-08-25T11:43:53;1.45;;;1.35;;
35679;SDS011;21803;53.586;10.040;2022-08-25T11:46:48;1.60;;;1.35;;
35679;SDS011;21803;53.586;10.040;2022-08-25T11:55:12;1.63;;;1.38;;
35679;SDS011;21803;53.586;10.040;2022-08-25T11:57:42;2.00;;;1.55;;
35679;SDS011;21803;53.586;10.040;2022-08-25T12:00:51;2.22;;;1.25;;
35679;SDS011;21803;53.586;10.040;2022-08-25T12:02:57;1.50;;;1.40;;
35679;SDS011;21803;53.586;10.040;2022-08-25T12:07:57;1.40;;;1.30;;
35679;SDS011;21803;53.586;10.040;2022-08-25T12:11:00;2.15;;;1.40;;
35679;SDS011;21803;53.586;10.040;2022-08-25T12:16:05;1.90;;;1.30;;
35679;SDS011;21803;53.586;10.040;2022-08-25T12:18:51;2.05;;;1.38;;
35679;SDS011;21803;53.586;10.040;2022-08-25T12:21:27;1.90;;;1.30;;
35679;SDS011;21803;53.586;10.040;2022-08-25T12:26:29;1.50;;;1.40;;
35679;SDS011;21803;53.586;10.040;2022-08-25T12:29:29;1.33;;;1.23;;
35679;SDS011;21803;53.586;10.040;2022-08-25T12:32:20;1.42;;;1.30;;
35679;SDS011;21803;53.586;10.040;2022-08-25T12:38:02;1.30;;;1.20;;
35679;SDS011;21803;53.586;10.040;2022-08-25T12:40:36;1.38;;;1.15;;
35679;SDS011;21803;53.586;10.040;2022-08-25T12:43:24;1.55;;;1.35;;
35679;SDS011;21803;53.586;10.040;2022-08-25T12:45:54;1.58;;;1.40;;
35679;SDS011;21803;53.586;10.040;2022-08-25T12:49:02;1.50;;;1.23;;
35679;SDS011;21803;53.586;10.040;2022-08-25T12:54:11;1.33;;;1.23;;
35679;SDS011;21803;53.586;10.040;2022-08-25T12:56:58;1.35;;;1.20;;
35679;SDS011;21803;53.586;10.040;2022-08-25T12:59:38;1.48;;;1.25;;
35679;SDS011;21803;53.586;10.040;2022-08-25T13:10:43;1.60;;;1.30;;
35679;SDS011;21803;53.586;10.040;2022-08-25T13:16:01;1.48;;;1.27;;
35679;SDS011;21803;53.586;10.040;2022-08-25T13:18:31;1.48;;;1.30;;
35679;SDS011;21803;53.586;10.040;2022-08-25T13:21:14;1.42;;;1.33;;
35679;SDS011;21803;53.586;10.040;2022-08-25T13:23:46;1.50;;;1.30;;
35679;SDS011;21803;53.586;10.040;2022-08-25T13:26:15;1.75;;;1.30;;
35679;SDS011;21803;53.586;10.040;2022-08-25T13:28:49;1.35;;;1.25;;
35679;SDS011;21803;53.586;10.040;2022-08-25T13:31:19;1.40;;;1.30;;
35679;SDS011;21803;53.586;10.040;2022-08-25T13:33:59;1.30;;;1.20;;
35679;SDS011;21803;53.586;10.040;2022-08-25T13:36:41;1.30;;;1.20;;
35679;SDS011;21803;53.586;10.040;2022-08-25T13:39:26;1.83;;;1.23;;
35679;SDS011;21803;53.586;10.040;2022-08-25T13:41:54;1.40;;;1.30;;
35679;SDS011;21803;53.586;10.040;2022-08-25T13:44:23;1.40;;;1.20;;
35679;SDS011;21803;53.586;10.040;2022-08-25T13:49:40;1.40;;;1.30;;
35679;SDS011;21803;53.586;10.040;2022-08-25T13:52:13;1.50;;;1.38;;
35679;SDS011;21803;53.586;10.040;2022-08-25T13:54:59;1.60;;;1.50;;
35679;SDS011;21803;53.586;10.040;2022-08-25T13:57:26;1.38;;;1.27;;
35679;SDS011;21803;53.586;10.040;2022-08-25T13:59:55;1.30;;;1.20;;
35679;SDS011;21803;53.586;10.040;2022-08-25T14:02:38;1.80;;;1.10;;
35679;SDS011;21803;53.586;10.040;2022-08-25T14:05:12;1.20;;;1.10;;
35679;SDS011;21803;53.586;10.040;2022-08-25T14:07:39;2.15;;;1.50;;
35679;SDS011;21803;53.586;10.040;2022-08-25T14:10:08;2.35;;;1.30;;
35679;SDS011;21803;53.586;10.040;2022-08-25T14:15:42;1.40;;;1.30;;
35679;SDS011;21803;53.586;10.040;2022-08-25T14:18:19;1.52;;;1.20;;
35679;SDS011;21803;53.586;10.040;2022-08-25T14:20:55;1.30;;;1.20;;
35679;SDS011;21803;53.586;10.040;2022-08-25T14:23:25;1.80;;;1.40;;
35679;SDS011;21803;53.586;10.040;2022-08-25T14:25:54;1.40;;;1.30;;
35679;SDS011;21803;53.586;10.040;2022-08-25T14:28:21;3.10;;;1.35;;
35679;SDS011;21803;53.586;10.040;2022-08-25T14:30:51;2.47;;;1.27;;
35679;SDS011;21803;53.586;10.040;2022-08-25T14:33:22;1.20;;;1.10;;
35679;SDS011;21803;53.586;10.040;2022-08-25T14:35:52;1.52;;;1.30;;
35679;SDS011;21803;53.586;10.040;2022-08-25T14:38:19;2.10;;;1.42;;
35679;SDS011;21803;53.586;10.040;2022-08-25T14:40:45;2.00;;;1.20;;
35679;SDS011;21803;53.586;10.040;2022-08-25T14:43:11;1.13;;;1.02;;
35679;SDS011;21803;53.586;10.040;2022-08-25T14:45:38;1.65;;;1.38;;
35679;SDS011;21803;53.586;10.040;2022-08-25T14:48:06;1.50;;;1.38;;
35679;SDS011;21803;53.586;10.040;2022-08-25T14:50:34;1.58;;;1.40;;
35679;SDS011;21803;53.586;10.040;2022-08-25T14:53:00;1.73;;;1.40;;
35679;SDS011;21803;53.586;10.040;2022-08-25T14:55:26;1.83;;;1.30;;
35679;SDS011;21803;53.586;10.040;2022-08-25T14:57:52;3.30;;;1.48;;
35679;SDS011;21803;53.586;10.040;2022-08-25T15:00:17;1.40;;;1.30;;
35679;SDS011;21803;53.586;10.040;2022-08-25T15:02:43;1.70;;;1.50;;
35679;SDS011;21803;53.586;10.040;2022-08-25T15:05:12;1.40;;;1.30;;
35679;SDS011;21803;53.586;10.040;2022-08-25T15:07:40;1.63;;;1.38;;
35679;SDS011;21803;53.586;10.040;2022-08-25T15:10:25;1.35;;;1.25;;
35679;SDS011;21803;53.586;10.040;2022-08-25T15:12:50;1.60;;;1.40;;
35679;SDS011;21803;53.586;10.040;2022-08-25T15:15:16;1.65;;;1.50;;
35679;SDS011;21803;53.586;10.040;2022-08-25T15:17:43;1.73;;;1.48;;
35679;SDS011;21803;53.586;10.040;2022-08-25T15:20:10;1.70;;;1.50;;
35679;SDS011;21803;53.586;10.040;2022-08-25T15:22:36;1.80;;;1.20;;
35679;SDS011;21803;53.586;10.040;2022-08-25T15:25:02;1.55;;;1.30;;
35679;SDS011;21803;53.586;10.040;2022-08-25T15:27:28;1.35;;;1.20;;
35679;SDS011;21803;53.586;10.040;2022-08-25T15:29:54;1.33;;;1.20;;
35679;SDS011;21803;53.586;10.040;2022-08-25T15:32:19;1.48;;;1.20;;
35679;SDS011;21803;53.586;10.040;2022-08-25T15:34:46;1.45;;;1.20;;
35679;SDS011;21803;53.586;10.040;2022-08-25T15:37:12;1.75;;;1.50;;
35679;SDS011;21803;53.586;10.040;2022-08-25T15:39:39;1.65;;;1.38;;
35679;SDS011;21803;53.586;10.040;2022-08-25T15:42:07;1.55;;;1.30;;
35679;SDS011;21803;53.586;10.040;2022-08-25T15:44:33;1.30;;;1.20;;
35679;SDS011;21803;53.586;10.040;2022-08-25T15:46:59;1.25;;;1.10;;
35679;SDS011;21803;53.586;10.040;2022-08-25T15:49:25;2.17;;;1.40;;
35679;SDS011;21803;53.586;10.040;2022-08-25T15:51:52;1.48;;;1.27;;
35679;SDS011;21803;53.586;10.040;2022-08-25T15:54:19;2.00;;;1.20;;
35679;SDS011;21803;53.586;10.040;2022-08-25T15:56:45;1.55;;;1.42;;
35679;SDS011;21803;53.586;10.040;2022-08-25T15:59:11;1.38;;;1.23;;
35679;SDS011;21803;53.586;10.040;2022-08-25T16:01:38;1.20;;;1.10;;
35679;SDS011;21803;53.586;10.040;2022-08-25T16:04:04;1.92;;;1.42;;
35679;SDS011;21803;53.586;10.040;2022-08-25T16:06:30;1.42;;;1.30;;
35679;SDS011;21803;53.586;10.040;2022-08-25T16:08:55;1.42;;;1.30;;
35679;SDS011;21803;53.586;10.040;2022-08-25T16:11:25;1.30;;;1.20;;
35679;SDS011;21803;53.586;10.040;2022-08-25T16:13:52;1.92;;;1.38;;
35679;SDS011;21803;53.586;10.040;2022-08-25T16:16:20;1.33;;;1.10;;
35679;SDS011;21803;53.586;10.040;2022-08-25T16:18:47;1.50;;;1.40;;
35679;SDS011;21803;53.586;10.040;2022-08-25T16:21:14;2.03;;;1.42;;
35679;SDS011;21803;53.586;10.040;2022-08-25T16:23:41;1.42;;;1.33;;
35679;SDS011;21803;53.586;10.040;2022-08-25T16:26:08;1.35;;;1.25;;
35679;SDS011;21803;53.586;10.040;2022-08-25T16:28:35;2.03;;;1.25;;
35679;SDS011;21803;53.586;10.040;2022-08-25T16:31:02;1.30;;;1.20;;
35679;SDS011;21803;53.586;10.040;2022-08-25T16:33:28;1.35;;;1.25;;
35679;SDS011;21803;53.586;10.040;2022-08-25T16:36:15;2.13;;;1.42;;